S28 weather

International Peace Garden Airport
Dunseith, North Dakota, United States

Public forecast

Using degrees Fahrenheit for public forecast. Weather courtesy of forecast.io.

Closest aviation weather report (METAR) to International Peace Garden Airport

Closest report is Rolla Municipal Airport, 18.0 nm (33.3 km) ESE. Retrieved 2019/11/17 18:35 UTC (19 minutes ago):

K06D 171835Z AUTO 25007KT 10SM OVC009 M01/M02 A2985 RMK AO2

Closest aviation forecast (TAF) to International Peace Garden Airport

Closest forecast is Brandon Municipal Airport, 54.9 nm (101.6 km) N. Retrieved 2019/11/17 18:42 UTC (12 minutes ago):

TAF TAF CYBR 171740Z 1718/1806 28008KT P6SM OVC010 TEMPO 1718/1721 4SM BR OVC006 PROB30 1718/1721 1SM BR OVC003 BECMG 1719/1721 18008KT FM172100 18008KT P6SM SCT008 BKN120 TEMPO 1721/1802 BKN008 OVC120 FM180200 14006KT P6SM FEW006 BKN080 TEMPO 1802/1806 4SM -RA BR BKN006 OVC080 RMK NXT FCST BY 180000Z